Time;durP1;ratioP1;P1;durP2;ratioP2;P2;SDS_P1;SDS_P2;PMS_P1;PMS_P2;Temp;Humidity;BMP_temperature;BMP_pressure;BME280_temperature;BME280_humidity;BME280_pressure;Samples;Min_cycle;Max_cycle;Signal;HPM_P1;HPM_P2
2021/11/06 00:02:22;;;;;;;11.73;2.50;;;7.50;99.90;;;;;;6214044;23;20023;-79
2021/11/06 00:04:48;;;;;;;5.40;1.88;;;7.50;99.90;;;;;;6215175;23;20384;-79
2021/11/06 00:07:14;;;;;;;13.18;2.08;;;7.60;99.90;;;;;;6214111;23;20451;-79
2021/11/06 00:09:40;;;;;;;9.10;2.60;;;7.60;99.90;;;;;;6190505;23;20400;-78
2021/11/06 00:12:06;;;;;;;6.43;1.90;;;7.60;99.90;;;;;;6213645;23;20107;-79
2021/11/06 00:14:33;;;;;;;8.07;2.00;;;7.60;99.90;;;;;;6214259;23;20019;-79
2021/11/06 00:16:59;;;;;;;6.18;2.00;;;7.70;99.90;;;;;;6215870;23;20008;-79
2021/11/06 00:19:25;;;;;;;10.45;2.20;;;7.70;99.90;;;;;;6215142;23;20012;-78
2021/11/06 00:21:51;;;;;;;11.63;2.50;;;7.70;99.90;;;;;;6216017;23;20446;-79
2021/11/06 00:24:19;;;;;;;19.60;2.28;;;7.80;99.90;;;;;;6189450;23;20044;-78
2021/11/06 00:26:49;;;;;;;14.55;2.60;;;7.80;99.90;;;;;;6215749;23;20019;-79
2021/11/06 00:29:16;;;;;;;7.53;2.10;;;7.90;99.90;;;;;;6242687;23;20019;-78
2021/11/06 00:31:41;;;;;;;17.20;2.85;;;7.90;99.90;;;;;;6214247;23;20070;-78
2021/11/06 00:34:07;;;;;;;3.40;1.90;;;7.90;99.90;;;;;;6216232;23;20016;-79
2021/11/06 00:36:34;;;;;;;5.55;1.90;;;8.10;99.90;;;;;;6215961;23;20372;-78
2021/11/06 00:38:59;;;;;;;12.60;2.40;;;8.00;99.90;;;;;;6190882;23;20016;-78
2021/11/06 00:41:25;;;;;;;10.07;2.25;;;8.10;99.90;;;;;;6216295;23;20050;-78
2021/11/06 00:43:51;;;;;;;8.57;2.10;;;8.10;99.90;;;;;;6205549;23;20012;-78
2021/11/06 00:46:17;;;;;;;8.90;2.28;;;8.00;99.90;;;;;;6215876;23;20529;-78
2021/11/06 00:48:43;;;;;;;7.45;2.25;;;8.10;99.90;;;;;;6190313;23;20012;-78
2021/11/06 00:51:09;;;;;;;6.05;2.00;;;8.00;99.90;;;;;;6189351;23;20016;-79
2021/11/06 00:53:34;;;;;;;8.60;2.42;;;8.10;99.90;;;;;;6215023;23;20020;-79
2021/11/06 00:56:00;;;;;;;6.50;1.95;;;8.10;99.90;;;;;;6214520;23;20016;-79
2021/11/06 00:58:25;;;;;;;7.60;2.03;;;8.10;99.90;;;;;;6214751;23;20027;-78
2021/11/06 01:00:51;;;;;;;8.77;2.25;;;8.10;99.90;;;;;;6214892;23;20012;-78
2021/11/06 01:03:17;;;;;;;16.83;2.60;;;8.10;99.90;;;;;;6189370;23;20447;-78
2021/11/06 01:05:42;;;;;;;8.88;2.35;;;8.20;99.90;;;;;;6216288;23;20040;-79
2021/11/06 01:08:08;;;;;;;9.05;2.25;;;8.20;99.90;;;;;;6215235;23;20062;-79
2021/11/06 01:10:34;;;;;;;12.00;2.28;;;8.30;99.90;;;;;;6215738;23;20016;-78
2021/11/06 01:13:00;;;;;;;8.55;2.28;;;8.30;99.90;;;;;;6190743;23;20016;-79
2021/11/06 01:15:26;;;;;;;10.57;2.67;;;8.30;99.90;;;;;;6214202;23;20777;-78
2021/11/06 01:17:52;;;;;;;7.90;2.22;;;8.30;99.90;;;;;;6214469;23;20043;-79
2021/11/06 01:20:18;;;;;;;11.05;2.40;;;8.30;99.90;;;;;;6215677;23;20083;-78
2021/11/06 01:22:45;;;;;;;9.70;2.28;;;8.40;99.90;;;;;;6190884;23;20093;-78
2021/11/06 01:25:11;;;;;;;9.45;2.60;;;8.40;99.90;;;;;;6214938;23;20071;-79
2021/11/06 01:27:37;;;;;;;11.70;2.63;;;8.40;99.90;;;;;;6190459;23;20300;-78
2021/11/06 01:30:05;;;;;;;11.40;3.03;;;8.40;99.90;;;;;;6188010;23;20484;-79
2021/11/06 01:32:30;;;;;;;9.90;2.78;;;8.40;99.90;;;;;;6216682;23;20058;-78
2021/11/06 01:34:56;;;;;;;8.68;3.00;;;8.50;99.90;;;;;;6217053;23;20087;-79
2021/11/06 01:37:22;;;;;;;9.75;2.88;;;8.50;99.90;;;;;;6189687;23;20008;-78
2021/11/06 01:39:48;;;;;;;11.63;3.33;;;8.50;99.90;;;;;;6215925;23;20027;-79
2021/11/06 01:42:13;;;;;;;7.88;2.75;;;8.40;99.90;;;;;;6217083;23;20032;-78
2021/11/06 01:44:39;;;;;;;8.18;3.08;;;8.50;99.90;;;;;;6217634;23;20008;-79
2021/11/06 01:47:06;;;;;;;13.57;3.55;;;8.60;99.90;;;;;;6217098;23;20150;-79
2021/11/06 01:49:32;;;;;;;11.43;3.90;;;8.50;99.90;;;;;;6217306;23;20024;-78
2021/11/06 01:51:58;;;;;;;11.82;4.10;;;8.50;99.90;;;;;;6215671;23;20016;-78
2021/11/06 01:54:25;;;;;;;17.42;4.45;;;8.50;99.90;;;;;;6216616;23;20016;-78
2021/11/06 01:56:54;;;;;;;15.90;4.13;;;8.50;99.90;;;;;;6216925;23;20012;-78
2021/11/06 01:59:21;;;;;;;11.57;4.60;;;8.50;99.90;;;;;;6217111;23;20019;-78
2021/11/06 02:01:47;;;;;;;11.18;4.10;;;8.50;99.90;;;;;;6191013;23;20315;-78
2021/11/06 02:04:13;;;;;;;14.88;3.95;;;8.50;99.90;;;;;;6191653;23;20012;-78
2021/11/06 02:06:39;;;;;;;11.45;4.38;;;8.40;99.90;;;;;;6217531;23;20008;-78
2021/11/06 02:09:05;;;;;;;12.27;4.15;;;8.50;99.90;;;;;;6217489;23;20012;-78
2021/11/06 02:11:32;;;;;;;15.10;4.72;;;8.50;99.90;;;;;;6215488;23;20024;-78
2021/11/06 02:13:58;;;;;;;13.13;4.63;;;8.50;99.90;;;;;;6217132;23;20016;-78
2021/11/06 02:16:24;;;;;;;9.95;4.72;;;8.50;99.90;;;;;;6217848;23;20285;-78
2021/11/06 02:18:50;;;;;;;13.57;5.45;;;8.50;99.90;;;;;;6217775;23;20009;-78
2021/11/06 02:21:16;;;;;;;13.32;4.75;;;8.50;99.90;;;;;;6217991;23;20008;-79
2021/11/06 02:23:44;;;;;;;11.60;5.13;;;8.50;99.90;;;;;;6217987;23;20023;-78
2021/11/06 02:26:13;;;;;;;12.88;5.10;;;8.50;99.90;;;;;;6218002;23;20111;-79
2021/11/06 02:28:40;;;;;;;11.48;5.25;;;8.50;99.90;;;;;;6217831;23;20058;-78
2021/11/06 02:31:06;;;;;;;16.42;5.47;;;8.50;99.90;;;;;;6217498;23;20035;-78
2021/11/06 02:33:32;;;;;;;10.75;4.90;;;8.50;99.90;;;;;;6217690;23;20074;-78
2021/11/06 02:36:01;;;;;;;17.30;5.53;;;8.50;99.90;;;;;;6217716;23;20462;-78
2021/11/06 02:38:28;;;;;;;14.70;5.57;;;8.50;99.90;;;;;;6217930;23;20019;-78
2021/11/06 02:40:53;;;;;;;12.20;6.00;;;8.50;99.90;;;;;;6193100;23;20068;-79
2021/11/06 02:43:19;;;;;;;11.55;5.95;;;8.60;99.90;;;;;;6218230;23;20027;-78
2021/11/06 02:45:45;;;;;;;14.77;5.57;;;8.50;99.90;;;;;;6217278;23;20012;-78
2021/11/06 02:48:10;;;;;;;15.93;6.47;;;8.50;99.90;;;;;;6192654;23;20012;-79
2021/11/06 02:50:36;;;;;;;16.15;5.97;;;8.50;99.90;;;;;;6217919;23;20052;-79
2021/11/06 02:53:02;;;;;;;17.13;6.10;;;8.50;99.90;;;;;;6192058;23;20019;-79
2021/11/06 02:55:28;;;;;;;14.15;5.70;;;8.60;99.90;;;;;;6217231;23;20308;-78
2021/11/06 02:57:54;;;;;;;14.95;6.10;;;8.60;99.90;;;;;;6217485;23;20091;-79
2021/11/06 03:00:20;;;;;;;10.63;5.85;;;8.60;99.90;;;;;;6216547;23;20515;-78
2021/11/06 03:02:46;;;;;;;22.23;7.20;;;8.60;99.90;;;;;;6217495;23;20294;-78
2021/11/06 03:05:14;;;;;;;15.40;6.43;;;8.60;99.90;;;;;;6245106;23;20103;-79
2021/11/06 03:07:41;;;;;;;14.15;6.07;;;8.60;99.90;;;;;;6217814;23;20012;-78
2021/11/06 03:10:09;;;;;;;18.10;6.50;;;8.60;99.90;;;;;;6217996;23;20020;-79
2021/11/06 03:12:36;;;;;;;19.27;7.50;;;8.50;99.90;;;;;;6192474;23;20027;-78
2021/11/06 03:15:02;;;;;;;13.13;6.90;;;8.50;99.90;;;;;;6217231;23;20034;-79
2021/11/06 03:17:28;;;;;;;15.13;7.03;;;8.50;99.90;;;;;;6192518;23;20428;-78
2021/11/06 03:19:54;;;;;;;16.55;6.82;;;8.60;99.90;;;;;;6191617;23;20042;-79
2021/11/06 03:22:19;;;;;;;15.15;7.30;;;8.60;99.90;;;;;;6218249;23;20058;-78
2021/11/06 03:24:45;;;;;;;22.00;8.25;;;8.60;99.90;;;;;;6192557;23;20011;-78
2021/11/06 03:27:11;;;;;;;19.23;7.43;;;8.60;99.90;;;;;;6217410;23;20012;-79
2021/11/06 03:29:37;;;;;;;20.02;7.68;;;8.60;99.90;;;;;;6217310;23;20016;-78
2021/11/06 03:32:04;;;;;;;19.45;8.15;;;8.60;99.90;;;;;;6216446;23;20077;-79
2021/11/06 03:34:30;;;;;;;19.13;7.43;;;8.60;99.90;;;;;;6192346;23;20020;-78
2021/11/06 03:36:56;;;;;;;21.02;8.50;;;8.60;99.90;;;;;;6217335;23;20027;-79
2021/11/06 03:39:22;;;;;;;20.05;7.95;;;8.70;99.90;;;;;;6192581;23;20020;-78
2021/11/06 03:41:48;;;;;;;15.63;7.78;;;8.60;99.90;;;;;;6244545;23;20411;-79
2021/11/06 03:44:15;;;;;;;17.55;8.38;;;8.70;99.90;;;;;;6192222;23;20062;-77
2021/11/06 03:46:41;;;;;;;16.98;7.95;;;8.70;99.90;;;;;;6216610;23;20012;-77
2021/11/06 03:49:07;;;;;;;19.38;8.32;;;8.70;99.90;;;;;;6192557;23;20294;-77
2021/11/06 03:51:32;;;;;;;18.10;8.95;;;8.70;99.90;;;;;;6216708;23;20022;-76
2021/11/06 03:54:00;;;;;;;17.08;8.88;;;8.70;99.90;;;;;;6191586;23;20490;-77
2021/11/06 03:56:26;;;;;;;19.63;8.55;;;8.70;99.90;;;;;;6217136;23;20054;-76
2021/11/06 03:58:52;;;;;;;17.98;8.63;;;8.70;99.90;;;;;;6217307;23;20341;-77
2021/11/06 04:01:18;;;;;;;24.85;9.15;;;8.70;99.90;;;;;;6216268;23;20016;-77
2021/11/06 04:03:44;;;;;;;20.25;9.25;;;8.70;99.90;;;;;;6191039;23;20317;-77
2021/11/06 04:06:10;;;;;;;23.75;10.02;;;8.70;99.90;;;;;;6191857;23;20014;-77
2021/11/06 04:08:36;;;;;;;23.08;10.00;;;8.80;99.90;;;;;;6216576;23;20369;-77
2021/11/06 04:11:02;;;;;;;24.02;10.32;;;8.80;99.90;;;;;;6191629;23;20099;-76
2021/11/06 04:13:28;;;;;;;24.50;10.23;;;8.80;99.90;;;;;;6216404;23;20043;-76
2021/11/06 04:15:53;;;;;;;26.85;10.60;;;8.80;99.90;;;;;;6216370;23;20015;-77
2021/11/06 04:18:19;;;;;;;21.23;10.07;;;8.80;99.90;;;;;;6191724;23;20012;-76
2021/11/06 04:20:45;;;;;;;19.30;10.48;;;8.80;99.90;;;;;;6216819;23;20508;-76
2021/11/06 04:23:11;;;;;;;21.75;10.25;;;8.90;99.90;;;;;;6191800;23;20016;-77
2021/11/06 04:25:37;;;;;;;25.35;11.00;;;8.90;99.90;;;;;;6190917;23;20085;-76
2021/11/06 04:28:02;;;;;;;21.25;10.95;;;9.00;99.90;;;;;;6217222;23;20092;-78
2021/11/06 04:30:28;;;;;;;26.00;11.25;;;8.90;99.90;;;;;;6190683;23;20016;-77
2021/11/06 04:32:54;;;;;;;29.20;11.77;;;9.00;99.90;;;;;;6216641;23;20111;-77
2021/11/06 04:35:20;;;;;;;27.55;11.13;;;9.00;99.90;;;;;;6216725;23;20445;-76
2021/11/06 04:37:45;;;;;;;23.67;12.00;;;9.00;99.90;;;;;;6217514;23;20012;-77
2021/11/06 04:40:12;;;;;;;28.83;12.05;;;9.00;99.90;;;;;;6191955;23;20012;-77
2021/11/06 04:42:39;;;;;;;32.30;12.60;;;9.00;99.90;;;;;;6191751;23;20008;-76
2021/11/06 04:45:06;;;;;;;24.95;11.93;;;9.00;99.90;;;;;;6215790;23;20008;-77
2021/11/06 04:47:32;;;;;;;22.67;13.18;;;9.10;99.90;;;;;;6191749;23;20502;-77
2021/11/06 04:49:57;;;;;;;26.33;12.68;;;9.10;99.90;;;;;;6216482;23;20087;-76
2021/11/06 04:52:23;;;;;;;27.90;12.52;;;9.10;99.90;;;;;;6191970;23;20012;-76
2021/11/06 04:54:49;;;;;;;31.25;13.82;;;9.10;99.90;;;;;;6190872;23;20022;-77
2021/11/06 04:57:15;;;;;;;33.38;14.65;;;9.00;99.90;;;;;;6199734;23;20067;-78
2021/11/06 04:59:41;;;;;;;30.98;14.05;;;9.20;99.90;;;;;;6206625;23;20023;-77
2021/11/06 05:02:07;;;;;;;26.42;14.45;;;9.10;99.90;;;;;;6228171;23;20012;-78
2021/11/06 05:04:33;;;;;;;28.13;15.07;;;9.20;99.90;;;;;;6232143;23;20012;-77
2021/11/06 05:06:59;;;;;;;27.10;15.35;;;9.20;99.90;;;;;;6212135;23;20035;-77
2021/11/06 05:09:25;;;;;;;32.58;16.13;;;9.20;99.90;;;;;;6238947;23;20016;-77
2021/11/06 05:11:50;;;;;;;32.92;17.08;;;9.20;99.90;;;;;;6237485;23;20024;-77
2021/11/06 05:14:17;;;;;;;35.28;17.10;;;9.20;99.90;;;;;;6226596;23;20035;-77
2021/11/06 05:16:43;;;;;;;32.30;17.77;;;9.20;99.90;;;;;;6218641;23;20047;-76
2021/11/06 05:19:09;;;;;;;32.47;17.52;;;9.10;99.90;;;;;;6218188;23;20012;-78
2021/11/06 05:21:37;;;;;;;29.05;16.63;;;9.20;99.90;;;;;;6218289;23;20043;-77
2021/11/06 05:24:04;;;;;;;33.45;17.67;;;9.10;99.90;;;;;;6218319;23;20008;-77
2021/11/06 05:26:30;;;;;;;32.08;17.95;;;9.10;99.90;;;;;;6245623;23;20012;-77
2021/11/06 05:28:56;;;;;;;32.00;17.92;;;9.00;99.90;;;;;;6217858;23;20016;-78
2021/11/06 05:31:22;;;;;;;33.33;18.08;;;9.00;99.90;;;;;;6218702;23;20314;-76
2021/11/06 05:33:48;;;;;;;39.20;19.42;;;9.00;99.90;;;;;;6193415;23;20023;-76
2021/11/06 05:36:13;;;;;;;30.30;17.83;;;9.00;99.90;;;;;;6218327;23;20037;-76
2021/11/06 05:38:40;;;;;;;34.88;18.95;;;9.00;99.90;;;;;;6218626;23;20336;-77
2021/11/06 05:41:05;;;;;;;35.53;17.92;;;8.90;99.90;;;;;;6193534;23;20314;-78
2021/11/06 05:43:31;;;;;;;52.13;20.13;;;9.00;99.90;;;;;;6193501;23;20095;-77
2021/11/06 05:45:58;;;;;;;43.10;19.15;;;9.00;99.90;;;;;;6218119;23;20019;-78
2021/11/06 05:48:23;;;;;;;36.72;19.85;;;8.90;99.90;;;;;;6218932;23;20107;-76
2021/11/06 05:50:49;;;;;;;37.60;20.08;;;8.80;99.90;;;;;;6217777;23;20084;-77
2021/11/06 05:53:15;;;;;;;42.65;20.65;;;8.90;99.90;;;;;;6193721;23;20142;-77
2021/11/06 05:55:41;;;;;;;40.38;20.80;;;8.90;99.90;;;;;;6218684;23;20062;-76
2021/11/06 05:58:08;;;;;;;41.30;20.85;;;9.00;99.90;;;;;;6193738;23;20012;-78
2021/11/06 06:00:34;;;;;;;34.65;20.23;;;9.00;99.90;;;;;;6191640;23;20078;-77
2021/11/06 06:03:00;;;;;;;36.50;21.70;;;9.00;99.90;;;;;;6218311;23;20008;-78
2021/11/06 06:06:11;;;;;;;;;;;;;;;;;;;;;
2021/11/06 06:08:37;;;;;;;45.05;20.50;;;9.00;99.90;;;;;;6218014;23;20447;-76
2021/11/06 06:11:03;;;;;;;44.83;20.80;;;9.00;99.90;;;;;;6192756;23;20016;-77
2021/11/06 06:13:29;;;;;;;37.85;20.60;;;9.00;99.90;;;;;;6190996;23;20107;-77
2021/11/06 06:15:55;;;;;;;39.72;20.88;;;9.10;99.90;;;;;;6217199;23;20020;-77
2021/11/06 06:18:21;;;;;;;36.40;20.92;;;9.00;99.90;;;;;;6192426;23;20088;-76
2021/11/06 06:20:49;;;;;;;33.40;20.55;;;9.00;99.90;;;;;;6217030;23;20095;-76
2021/11/06 06:23:15;;;;;;;40.63;21.23;;;9.00;99.90;;;;;;6217274;23;20019;-76
2021/11/06 06:25:41;;;;;;;38.72;20.77;;;9.00;99.90;;;;;;6191533;23;20004;-77
2021/11/06 06:28:08;;;;;;;41.08;21.40;;;9.00;99.90;;;;;;6217434;23;20012;-77
2021/11/06 06:30:35;;;;;;;40.78;20.95;;;9.00;99.90;;;;;;6214807;23;20335;-77
2021/11/06 06:33:04;;;;;;;37.05;20.98;;;9.00;99.90;;;;;;6217248;23;20012;-76
2021/11/06 06:35:32;;;;;;;35.03;21.00;;;8.90;99.90;;;;;;6191322;23;20039;-77
2021/11/06 06:38:00;;;;;;;34.38;21.40;;;9.00;99.90;;;;;;6217416;23;20004;-80
2021/11/06 06:40:26;;;;;;;37.10;21.75;;;9.00;99.90;;;;;;6190964;23;20078;-76
2021/11/06 06:42:52;;;;;;;43.58;21.65;;;9.00;99.90;;;;;;6217218;23;20016;-77
2021/11/06 06:45:18;;;;;;;40.90;23.20;;;9.00;99.90;;;;;;6189886;23;20028;-77
2021/11/06 06:47:44;;;;;;;39.75;23.67;;;9.00;99.90;;;;;;6217301;23;20079;-77
2021/11/06 06:50:13;;;;;;;42.30;25.42;;;9.00;99.90;;;;;;6216089;23;20012;-77
2021/11/06 06:52:39;;;;;;;39.90;23.33;;;9.00;99.90;;;;;;6216302;23;20012;-78
2021/11/06 06:55:06;;;;;;;42.15;25.08;;;9.10;99.90;;;;;;6192792;23;20436;-78
2021/11/06 06:57:48;;;;;;;;;;;;;;;;;;;;;
2021/11/06 07:00:14;;;;;;;38.15;24.33;;;9.00;99.90;;;;;;6242521;23;20052;-80
2021/11/06 07:02:47;;;;;;;45.60;25.02;;;9.10;99.90;;;;;;6216810;23;20087;-80
2021/11/06 07:05:13;;;;;;;40.92;24.23;;;9.10;99.90;;;;;;6192666;23;20044;-79
2021/11/06 07:07:39;;;;;;;39.50;24.70;;;9.20;99.90;;;;;;6192455;23;20461;-78
2021/11/06 07:10:07;;;;;;;41.92;24.90;;;9.10;99.90;;;;;;6218117;23;20047;-78
2021/11/06 07:12:33;;;;;;;41.58;24.15;;;9.20;99.90;;;;;;6219462;23;20105;-76
2021/11/06 07:14:59;;;;;;;39.35;23.70;;;9.20;99.90;;;;;;6191416;23;20020;-78
2021/11/06 07:17:28;;;;;;;41.83;23.77;;;9.30;99.90;;;;;;6193155;23;20087;-79
2021/11/06 07:19:56;;;;;;;35.10;21.63;;;9.20;99.90;;;;;;6217695;23;20023;-80
2021/11/06 07:22:22;;;;;;;38.58;23.88;;;9.50;99.90;;;;;;6191959;23;20147;-78
2021/11/06 07:24:48;;;;;;;42.28;22.73;;;9.40;99.90;;;;;;6192743;23;20122;-77
2021/11/06 07:27:13;;;;;;;36.40;21.85;;;9.40;99.90;;;;;;6218023;23;20417;-78
2021/11/06 07:29:39;;;;;;;36.28;23.15;;;9.40;99.90;;;;;;6216398;23;20016;-77
2021/11/06 07:32:05;;;;;;;42.33;23.40;;;9.40;99.90;;;;;;6216679;23;20023;-80
2021/11/06 07:34:31;;;;;;;36.88;22.23;;;9.40;99.90;;;;;;6217257;23;20094;-76
2021/11/06 07:36:56;;;;;;;38.78;22.73;;;9.40;99.90;;;;;;6216975;23;20428;-76
2021/11/06 07:39:22;;;;;;;39.80;21.90;;;9.40;99.90;;;;;;6216954;23;20023;-77
2021/11/06 07:41:48;;;;;;;40.50;21.92;;;9.40;99.90;;;;;;6192207;23;20014;-78
2021/11/06 07:44:13;;;;;;;35.95;22.52;;;9.40;99.90;;;;;;6216206;23;20412;-75
2021/11/06 07:46:40;;;;;;;38.80;22.35;;;9.50;99.90;;;;;;6216210;23;20345;-78
2021/11/06 07:49:05;;;;;;;39.60;21.63;;;9.50;99.90;;;;;;6216878;23;20027;-79
2021/11/06 07:51:31;;;;;;;42.22;22.17;;;9.50;99.90;;;;;;6216639;23;20012;-76
2021/11/06 07:53:57;;;;;;;44.65;23.05;;;9.50;99.90;;;;;;6189280;23;20039;-77
2021/11/06 07:56:23;;;;;;;42.78;21.63;;;9.50;99.90;;;;;;6214536;23;20074;-76
2021/11/06 07:58:49;;;;;;;41.72;21.95;;;9.50;99.90;;;;;;6189444;23;20012;-76
2021/11/06 08:01:15;;;;;;;41.88;20.55;;;9.60;99.90;;;;;;6214623;23;20074;-77
2021/11/06 08:03:41;;;;;;;37.85;21.67;;;9.60;99.90;;;;;;6215433;23;20015;-79
2021/11/06 08:06:07;;;;;;;35.72;21.70;;;9.60;99.90;;;;;;6215529;23;20182;-75
2021/11/06 08:08:33;;;;;;;33.92;18.15;;;9.60;99.90;;;;;;6216408;23;20099;-77
2021/11/06 08:10:59;;;;;;;45.58;17.38;;;9.70;99.90;;;;;;6216694;23;20020;-77
2021/11/06 08:13:25;;;;;;;35.63;19.60;;;9.80;99.90;;;;;;6214892;23;20019;-77
2021/11/06 08:15:52;;;;;;;36.00;19.80;;;9.80;99.90;;;;;;6216266;23;20019;-76
2021/11/06 08:18:17;;;;;;;40.55;18.55;;;9.80;99.90;;;;;;6216731;23;20043;-77
2021/11/06 08:20:43;;;;;;;34.95;18.52;;;9.70;99.90;;;;;;6216207;23;20004;-77
2021/11/06 08:23:09;;;;;;;32.75;19.13;;;9.70;99.90;;;;;;6216267;23;20016;-77
2021/11/06 08:25:35;;;;;;;37.05;19.08;;;9.70;99.90;;;;;;6215648;23;20015;-77
2021/11/06 08:28:01;;;;;;;32.90;17.40;;;9.70;99.90;;;;;;6190890;23;20088;-78
2021/11/06 08:30:27;;;;;;;28.55;17.80;;;9.70;99.90;;;;;;6213608;23;20145;-78
2021/11/06 08:32:55;;;;;;;35.15;18.25;;;9.60;99.90;;;;;;6215968;23;20019;-78
2021/11/06 08:35:22;;;;;;;32.60;18.48;;;9.70;99.90;;;;;;6218990;23;20314;-78
2021/11/06 08:37:48;;;;;;;31.35;17.90;;;9.70;99.90;;;;;;6194471;23;20095;-78
2021/11/06 08:40:14;;;;;;;29.98;18.65;;;9.70;99.90;;;;;;6221778;23;20016;-79
2021/11/06 08:46:21;;;;;;;32.03;18.25;;;9.90;99.90;;;;;;6245510;23;20007;-78
2021/11/06 08:48:46;;;;;;;37.17;18.75;;;9.90;99.90;;;;;;6217133;23;20325;-79
2021/11/06 08:51:12;;;;;;;35.17;19.35;;;9.90;99.90;;;;;;6191272;23;20012;-80
2021/11/06 08:53:38;;;;;;;32.78;18.65;;;9.90;99.90;;;;;;6174071;23;20127;-78
2021/11/06 08:56:04;;;;;;;29.42;18.20;;;9.90;99.90;;;;;;6237113;23;20012;-79
2021/11/06 08:58:31;;;;;;;33.15;18.30;;;10.00;99.90;;;;;;6191427;23;20016;-78
2021/11/06 09:00:57;;;;;;;31.45;18.05;;;10.10;99.90;;;;;;6216880;23;20134;-79
2021/11/06 09:03:24;;;;;;;30.23;17.70;;;10.00;99.90;;;;;;6192189;23;20443;-78
2021/11/06 09:05:52;;;;;;;28.95;17.63;;;10.10;99.90;;;;;;6217033;23;20012;-79
2021/11/06 09:08:30;;;;;;;35.35;17.17;;;10.10;99.90;;;;;;6191661;23;20012;-78
2021/11/06 09:10:59;;;;;;;33.20;17.42;;;10.20;99.90;;;;;;6216588;23;20004;-79
2021/11/06 09:13:28;;;;;;;34.55;17.42;;;10.20;99.90;;;;;;6191342;23;20032;-78
2021/11/06 09:15:55;;;;;;;36.40;17.35;;;10.20;99.90;;;;;;6191367;23;20404;-79
2021/11/06 09:18:20;;;;;;;26.73;17.02;;;10.20;99.90;;;;;;6191813;23;20019;-78
2021/11/06 09:20:47;;;;;;;29.17;17.00;;;10.30;99.90;;;;;;6216234;23;20016;-77
2021/11/06 09:23:13;;;;;;;34.15;17.17;;;10.30;99.90;;;;;;6216257;23;20017;-76
2021/11/06 09:25:39;;;;;;;30.27;17.52;;;10.40;99.90;;;;;;6217283;23;20094;-78
2021/11/06 09:28:05;;;;;;;29.98;16.15;;;10.40;99.90;;;;;;6216861;23;20070;-78
2021/11/06 09:30:30;;;;;;;28.20;16.10;;;10.40;99.90;;;;;;6214862;23;20665;-80
2021/11/06 09:32:56;;;;;;;25.40;15.38;;;10.50;99.90;;;;;;6216942;23;20078;-77
2021/11/06 09:35:22;;;;;;;27.73;16.55;;;10.50;99.90;;;;;;6215516;23;20012;-76
2021/11/06 09:37:48;;;;;;;30.48;16.20;;;10.60;99.90;;;;;;6216213;23;20016;-76
2021/11/06 09:40:15;;;;;;;28.88;15.65;;;10.50;99.90;;;;;;6243623;23;20043;-77
2021/11/06 09:42:41;;;;;;;27.65;15.40;;;10.60;99.90;;;;;;6215725;23;20444;-76
2021/11/06 09:45:09;;;;;;;31.70;16.85;;;10.70;99.90;;;;;;6189607;23;20032;-78
2021/11/06 09:47:36;;;;;;;27.75;14.43;;;10.70;99.90;;;;;;6241600;23;20290;-77
2021/11/06 09:50:04;;;;;;;27.75;15.43;;;10.70;99.90;;;;;;6191361;23;20079;-76
2021/11/06 09:52:30;;;;;;;26.70;15.10;;;10.70;99.90;;;;;;6191540;23;20016;-76
2021/11/06 09:54:56;;;;;;;26.35;13.25;;;10.80;99.90;;;;;;6215888;23;20012;-77
2021/11/06 09:57:21;;;;;;;26.75;14.23;;;10.80;99.90;;;;;;6191155;23;20016;-74
2021/11/06 09:59:47;;;;;;;30.73;14.00;;;10.80;99.90;;;;;;6216573;23;20012;-77
2021/11/06 10:02:13;;;;;;;24.77;14.05;;;10.90;99.90;;;;;;6217091;23;20004;-76
2021/11/06 10:04:38;;;;;;;24.17;14.65;;;10.80;99.90;;;;;;6217764;23;20016;-77
2021/11/06 10:07:23;;;;;;;26.50;14.32;;;10.80;99.90;;;;;;6217836;23;20004;-78
2021/11/06 10:10:26;;;;;;;26.55;14.80;;;10.80;99.90;;;;;;6217938;23;20016;-77
2021/11/06 10:12:57;;;;;;;23.65;13.60;;;10.80;99.90;;;;;;6126484;23;20026;-78
2021/11/06 10:15:25;;;;;;;27.38;13.73;;;10.80;99.90;;;;;;6101215;23;20017;-77
2021/11/06 10:17:52;;;;;;;23.13;13.32;;;10.90;99.90;;;;;;6151804;23;20025;-77
2021/11/06 10:20:29;;;;;;;24.80;13.93;;;10.80;99.90;;;;;;6078805;23;20071;-77
2021/11/06 10:22:58;;;;;;;28.35;14.23;;;10.80;99.90;;;;;;6125911;23;20010;-77
2021/11/06 10:25:25;;;;;;;23.05;12.77;;;10.70;99.90;;;;;;6102448;23;20092;-79
2021/11/06 10:27:59;;;;;;;23.88;13.63;;;10.80;99.90;;;;;;6102502;23;20021;-80
2021/11/06 10:30:38;;;;;;;22.08;12.25;;;10.80;99.90;;;;;;6126116;23;20020;-81
2021/11/06 10:33:15;;;;;;;25.02;11.93;;;10.80;99.90;;;;;;6126843;23;20052;-79
2021/11/06 10:36:02;;;;;;;29.13;13.48;;;10.80;99.90;;;;;;6126312;23;20032;-83
2021/11/06 10:39:15;;;;;;;24.33;12.30;;;10.90;99.90;;;;;;6126277;23;20017;-80
2021/11/06 10:41:43;;;;;;;24.27;12.27;;;10.80;99.90;;;;;;6093245;23;20307;-80
2021/11/06 10:44:28;;;;;;;25.65;12.63;;;10.90;99.90;;;;;;6102432;23;20010;-82
2021/11/06 10:46:54;;;;;;;21.85;11.82;;;10.90;99.90;;;;;;6051947;23;20025;-76
2021/11/06 10:49:31;;;;;;;22.10;12.45;;;11.00;99.90;;;;;;6069125;23;20097;-76
2021/11/06 10:52:08;;;;;;;25.73;13.15;;;11.10;99.90;;;;;;6065930;23;20089;-75
2021/11/06 10:55:17;;;;;;;;;;;;;;;;;;;;;
2021/11/06 10:58:28;;;;;;;21.60;12.38;;;11.20;99.90;;;;;;5948374;24;20027;-80
2021/11/06 11:01:00;;;;;;;25.13;12.25;;;11.20;99.90;;;;;;5953928;24;20020;-78
2021/11/06 11:03:29;;;;;;;28.35;13.00;;;11.30;99.90;;;;;;5978069;24;20023;-79
2021/11/06 11:05:57;;;;;;;24.98;12.38;;;11.30;99.90;;;;;;5978088;24;20022;-81
2021/11/06 11:08:23;;;;;;;27.13;12.68;;;11.40;99.90;;;;;;5931504;24;20511;-78
2021/11/06 11:10:49;;;;;;;29.33;12.75;;;11.30;99.90;;;;;;5955924;24;20023;-83
2021/11/06 11:14:02;;;;;;;29.58;13.63;;;11.40;99.90;;;;;;5933020;24;20024;-82
2021/11/06 11:17:01;;;;;;;21.13;12.50;;;11.40;99.90;;;;;;5846485;24;20026;-80
2021/11/06 11:19:48;;;;;;;25.00;12.27;;;11.40;99.90;;;;;;5943779;24;20377;-77
2021/11/06 11:22:29;;;;;;;29.77;13.65;;;11.40;99.90;;;;;;5928612;24;20027;-78
2021/11/06 11:24:56;;;;;;;28.42;13.35;;;11.60;99.90;;;;;;5950970;23;20016;-78
2021/11/06 11:27:22;;;;;;;25.33;12.70;;;11.30;99.90;;;;;;5950718;24;20085;-78
2021/11/06 11:29:48;;;;;;;29.83;13.73;;;11.30;99.90;;;;;;5949668;24;20051;-79
2021/11/06 11:32:16;;;;;;;26.75;13.25;;;11.20;99.90;;;;;;5926819;24;20132;-79
2021/11/06 11:34:46;;;;;;;23.63;12.90;;;11.30;99.90;;;;;;6013215;23;20019;-82
2021/11/06 11:37:14;;;;;;;27.30;13.73;;;11.40;99.90;;;;;;6091064;23;20018;-80
2021/11/06 11:39:40;;;;;;;25.20;12.93;;;11.20;99.90;;;;;;6043865;23;20102;-80
2021/11/06 11:42:11;;;;;;;25.27;13.40;;;11.30;99.90;;;;;;6067133;23;20471;-81
2021/11/06 11:44:58;;;;;;;23.80;13.02;;;11.30;99.90;;;;;;6045328;23;20327;-78
2021/11/06 11:47:41;;;;;;;25.15;13.23;;;11.30;99.90;;;;;;6067596;23;20045;-78
2021/11/06 11:50:16;;;;;;;25.40;13.57;;;11.30;99.90;;;;;;6068841;23;20118;-78
2021/11/06 11:52:48;;;;;;;20.75;13.05;;;11.30;99.90;;;;;;6167226;23;20016;-79
2021/11/06 11:55:18;;;;;;;21.33;12.88;;;11.30;99.90;;;;;;6216483;23;20052;-79
2021/11/06 11:58:07;;;;;;;26.58;13.18;;;11.30;99.90;;;;;;6216793;23;20575;-81
2021/11/06 12:00:40;;;;;;;26.67;13.18;;;11.30;99.90;;;;;;6215579;23;20020;-80
2021/11/06 12:03:07;;;;;;;30.52;13.85;;;11.20;99.90;;;;;;6244396;23;20305;-81
2021/11/06 12:05:38;;;;;;;28.40;13.52;;;11.30;99.90;;;;;;6191407;23;20478;-78
2021/11/06 12:08:10;;;;;;;26.83;12.88;;;11.20;99.90;;;;;;6216825;23;20062;-76
2021/11/06 12:10:45;;;;;;;25.20;13.63;;;11.20;99.90;;;;;;6192552;23;20011;-76
2021/11/06 12:13:31;;;;;;;26.52;12.77;;;11.10;99.90;;;;;;6192243;23;20101;-77
2021/11/06 12:16:04;;;;;;;27.23;11.50;;;11.20;99.90;;;;;;6191521;23;20440;-79
2021/11/06 12:18:33;;;;;;;25.20;12.55;;;11.30;99.90;;;;;;6218003;23;20012;-78
2021/11/06 12:21:18;;;;;;;23.67;12.32;;;11.30;99.90;;;;;;6193738;23;20063;-79
2021/11/06 12:23:57;;;;;;;24.85;11.98;;;11.30;99.90;;;;;;6217372;23;20031;-77
2021/11/06 12:26:34;;;;;;;22.73;11.90;;;11.40;99.90;;;;;;6191692;23;20043;-74
2021/11/06 12:29:05;;;;;;;27.98;12.93;;;11.60;99.90;;;;;;6216841;23;20008;-77
2021/11/06 12:31:45;;;;;;;24.13;12.07;;;11.60;99.90;;;;;;6216216;23;20039;-77
2021/11/06 12:34:33;;;;;;;22.45;11.60;;;11.60;99.90;;;;;;6216052;23;20440;-78
2021/11/06 12:37:00;;;;;;;29.95;11.77;;;11.60;99.90;;;;;;6215842;23;20480;-77
2021/11/06 12:39:55;;;;;;;25.05;11.68;;;11.50;99.90;;;;;;6191157;23;20032;-79
2021/11/06 12:42:25;;;;;;;23.48;11.10;;;11.60;99.90;;;;;;6216145;23;20091;-76
2021/11/06 12:44:55;;;;;;;23.67;10.57;;;11.70;99.90;;;;;;6216699;23;20099;-78
2021/11/06 12:47:22;;;;;;;18.58;10.32;;;11.60;99.90;;;;;;6216523;23;20012;-80
2021/11/06 12:49:49;;;;;;;20.67;10.98;;;11.60;99.90;;;;;;6216213;23;20020;-81
2021/11/06 12:52:16;;;;;;;27.92;10.38;;;11.60;99.90;;;;;;6192210;23;20019;-77